バンギ の空港の天気 - METARとTAF

バンギ・ムポコ国際空港 ( FEFF / BGF ) - 中央アフリカ バンギ
飛行場実況気象(Metar)
観測時間08/18 03:00 WAT (08/18 02:00 UTC)
風向・風速静穏 0m/s
視程8000m
天気現象
なし
気温23℃
湿度100%
気圧1012hPa
METARFEFF 180200Z 00000KT 8000 NSC 23/23 Q1012 NOSIG
過去の天気等 Google飛行場航空写真 Wunderground天気予報

過去48時間のMETAR

飛行場予報(TAF)
発表時間: 8/18 00:00 WAT (8/17 23:00 UTC)
予報対象時間: 18日1時 WAT ~ 19日7時 WAT
風向・風速不定 1m/s
視程6000m
なし
18日2時 WAT ~ 18日4時 WAT に徐々に
全天の8割程度の雲 雲底高度 300m
少しの積乱雲 雲底高度 1010m
18日4時 WAT ~ 18日9時 WAT に一時的に
風向・風速不定 8m/s
天気現象雷雨
18日14時 WAT ~ 18日21時 WAT に一時的に
天気現象雷雨
TAF FEFF 172300Z 1800/1906 VRB02KT 6000 NSC
BECMG 1801/1803 BKN010 FEW033CB
TEMPO 1803/1808 VRB15KT TSRA
TEMPO 1813/1820 TSRA